sensor_id;sensor_type;location;lat;lon;timestamp;temperature;humidity
53978;DHT22;39886;47.984;-1.586;2023-05-13T00:00:27;19.40;70.00
53978;DHT22;39886;47.984;-1.586;2023-05-13T00:02:53;19.40;70.00
53978;DHT22;39886;47.984;-1.586;2023-05-13T00:05:19;19.40;70.00
53978;DHT22;39886;47.984;-1.586;2023-05-13T00:07:45;19.40;70.00
53978;DHT22;39886;47.984;-1.586;2023-05-13T00:10:10;19.40;70.00
53978;DHT22;39886;47.984;-1.586;2023-05-13T00:12:37;19.40;70.00
53978;DHT22;39886;47.984;-1.586;2023-05-13T00:15:03;19.40;70.10
53978;DHT22;39886;47.984;-1.586;2023-05-13T00:17:29;19.40;70.10
53978;DHT22;39886;47.984;-1.586;2023-05-13T00:19:54;19.40;70.00
53978;DHT22;39886;47.984;-1.586;2023-05-13T00:22:20;19.40;70.00
53978;DHT22;39886;47.984;-1.586;2023-05-13T00:24:46;19.30;70.00
53978;DHT22;39886;47.984;-1.586;2023-05-13T00:27:11;19.40;70.10
53978;DHT22;39886;47.984;-1.586;2023-05-13T00:29:37;19.30;70.00
53978;DHT22;39886;47.984;-1.586;2023-05-13T00:32:03;19.40;70.10
53978;DHT22;39886;47.984;-1.586;2023-05-13T00:34:32;19.30;70.10
53978;DHT22;39886;47.984;-1.586;2023-05-13T00:36:57;19.40;70.20
53978;DHT22;39886;47.984;-1.586;2023-05-13T00:39:24;19.40;70.10
53978;DHT22;39886;47.984;-1.586;2023-05-13T00:41:49;19.40;70.10
53978;DHT22;39886;47.984;-1.586;2023-05-13T00:44:15;19.30;70.10
53978;DHT22;39886;47.984;-1.586;2023-05-13T00:46:41;19.40;70.10
53978;DHT22;39886;47.984;-1.586;2023-05-13T00:49:07;19.30;70.10
53978;DHT22;39886;47.984;-1.586;2023-05-13T00:51:33;19.30;70.10
53978;DHT22;39886;47.984;-1.586;2023-05-13T00:54:00;19.30;70.10
53978;DHT22;39886;47.984;-1.586;2023-05-13T00:56:26;19.30;70.10
53978;DHT22;39886;47.984;-1.586;2023-05-13T00:58:52;19.30;70.10
53978;DHT22;39886;47.984;-1.586;2023-05-13T01:01:46;19.30;70.10
53978;DHT22;39886;47.984;-1.586;2023-05-13T01:07:52;19.30;70.10
53978;DHT22;39886;47.984;-1.586;2023-05-13T01:10:49;19.30;70.20
53978;DHT22;39886;47.984;-1.586;2023-05-13T01:13:27;19.30;70.20
53978;DHT22;39886;47.984;-1.586;2023-05-13T01:16:20;19.30;70.20
53978;DHT22;39886;47.984;-1.586;2023-05-13T01:18:51;19.30;70.20
53978;DHT22;39886;47.984;-1.586;2023-05-13T01:21:25;19.30;70.20
53978;DHT22;39886;47.984;-1.586;2023-05-13T01:23:51;19.30;70.30
53978;DHT22;39886;47.984;-1.586;2023-05-13T01:26:17;19.30;70.20
53978;DHT22;39886;47.984;-1.586;2023-05-13T01:28:43;19.30;70.20
53978;DHT22;39886;47.984;-1.586;2023-05-13T01:31:09;19.30;70.20
53978;DHT22;39886;47.984;-1.586;2023-05-13T01:33:37;19.30;70.20
53978;DHT22;39886;47.984;-1.586;2023-05-13T01:36:03;19.30;70.20
53978;DHT22;39886;47.984;-1.586;2023-05-13T01:38:30;19.30;70.20
53978;DHT22;39886;47.984;-1.586;2023-05-13T01:40:58;19.30;70.20
53978;DHT22;39886;47.984;-1.586;2023-05-13T01:43:23;19.20;70.20
53978;DHT22;39886;47.984;-1.586;2023-05-13T01:45:49;19.30;70.20
53978;DHT22;39886;47.984;-1.586;2023-05-13T01:48:15;19.30;70.30
53978;DHT22;39886;47.984;-1.586;2023-05-13T01:50:43;19.20;70.20
53978;DHT22;39886;47.984;-1.586;2023-05-13T01:53:09;19.30;70.20
53978;DHT22;39886;47.984;-1.586;2023-05-13T01:55:34;19.20;70.20
53978;DHT22;39886;47.984;-1.586;2023-05-13T01:58:00;19.20;70.30
53978;DHT22;39886;47.984;-1.586;2023-05-13T02:00:26;19.20;70.20
53978;DHT22;39886;47.984;-1.586;2023-05-13T02:02:52;19.20;70.20
53978;DHT22;39886;47.984;-1.586;2023-05-13T02:05:17;19.20;70.20
53978;DHT22;39886;47.984;-1.586;2023-05-13T02:07:43;19.20;70.20
53978;DHT22;39886;47.984;-1.586;2023-05-13T02:10:09;19.20;70.20
53978;DHT22;39886;47.984;-1.586;2023-05-13T02:12:35;19.20;70.20
53978;DHT22;39886;47.984;-1.586;2023-05-13T02:15:01;19.20;70.20
53978;DHT22;39886;47.984;-1.586;2023-05-13T02:17:27;19.20;70.20
53978;DHT22;39886;47.984;-1.586;2023-05-13T02:19:52;19.20;70.30
53978;DHT22;39886;47.984;-1.586;2023-05-13T02:22:18;19.20;70.30
53978;DHT22;39886;47.984;-1.586;2023-05-13T02:24:44;19.20;70.30
53978;DHT22;39886;47.984;-1.586;2023-05-13T02:27:10;19.20;70.30
53978;DHT22;39886;47.984;-1.586;2023-05-13T02:29:37;19.20;70.30
53978;DHT22;39886;47.984;-1.586;2023-05-13T02:32:03;19.20;70.30
53978;DHT22;39886;47.984;-1.586;2023-05-13T02:34:29;19.20;70.30
53978;DHT22;39886;47.984;-1.586;2023-05-13T02:36:55;19.20;70.90
53978;DHT22;39886;47.984;-1.586;2023-05-13T02:39:20;19.20;70.30
53978;DHT22;39886;47.984;-1.586;2023-05-13T02:41:46;19.20;70.40
53978;DHT22;39886;47.984;-1.586;2023-05-13T02:44:12;19.20;70.30
53978;DHT22;39886;47.984;-1.586;2023-05-13T02:46:38;19.20;70.30
53978;DHT22;39886;47.984;-1.586;2023-05-13T02:49:03;19.20;70.30
53978;DHT22;39886;47.984;-1.586;2023-05-13T02:51:29;19.20;70.30
53978;DHT22;39886;47.984;-1.586;2023-05-13T02:53:55;19.20;70.30
53978;DHT22;39886;47.984;-1.586;2023-05-13T02:56:21;19.20;70.30
53978;DHT22;39886;47.984;-1.586;2023-05-13T02:58:46;19.20;70.40
53978;DHT22;39886;47.984;-1.586;2023-05-13T03:01:12;19.10;70.30
53978;DHT22;39886;47.984;-1.586;2023-05-13T03:03:38;19.20;70.40
53978;DHT22;39886;47.984;-1.586;2023-05-13T03:06:04;19.10;70.30
53978;DHT22;39886;47.984;-1.586;2023-05-13T03:08:30;19.10;70.40
53978;DHT22;39886;47.984;-1.586;2023-05-13T03:10:57;19.20;70.40
53978;DHT22;39886;47.984;-1.586;2023-05-13T03:13:23;19.20;70.40
53978;DHT22;39886;47.984;-1.586;2023-05-13T03:15:49;19.20;70.40
53978;DHT22;39886;47.984;-1.586;2023-05-13T03:18:15;19.20;70.40
53978;DHT22;39886;47.984;-1.586;2023-05-13T03:20:40;19.10;70.40
53978;DHT22;39886;47.984;-1.586;2023-05-13T03:23:06;19.20;70.40
53978;DHT22;39886;47.984;-1.586;2023-05-13T03:25:32;19.10;70.30
53978;DHT22;39886;47.984;-1.586;2023-05-13T03:27:58;19.10;70.30
53978;DHT22;39886;47.984;-1.586;2023-05-13T03:30:23;19.10;70.40
53978;DHT22;39886;47.984;-1.586;2023-05-13T03:32:49;19.10;70.40
53978;DHT22;39886;47.984;-1.586;2023-05-13T03:35:15;19.10;70.40
53978;DHT22;39886;47.984;-1.586;2023-05-13T03:37:41;19.10;70.40
53978;DHT22;39886;47.984;-1.586;2023-05-13T03:40:07;19.10;70.40
53978;DHT22;39886;47.984;-1.586;2023-05-13T03:42:33;19.10;70.40
53978;DHT22;39886;47.984;-1.586;2023-05-13T03:44:58;19.10;70.40
53978;DHT22;39886;47.984;-1.586;2023-05-13T03:47:24;19.10;70.40
53978;DHT22;39886;47.984;-1.586;2023-05-13T03:49:50;19.10;70.40
53978;DHT22;39886;47.984;-1.586;2023-05-13T03:52:16;19.10;70.40
53978;DHT22;39886;47.984;-1.586;2023-05-13T03:54:42;19.10;70.40
53978;DHT22;39886;47.984;-1.586;2023-05-13T03:57:08;19.10;70.40
53978;DHT22;39886;47.984;-1.586;2023-05-13T03:59:34;19.10;70.40
53978;DHT22;39886;47.984;-1.586;2023-05-13T04:01:59;19.10;70.40
53978;DHT22;39886;47.984;-1.586;2023-05-13T04:04:25;19.10;70.40
53978;DHT22;39886;47.984;-1.586;2023-05-13T04:06:51;19.10;70.40
53978;DHT22;39886;47.984;-1.586;2023-05-13T04:09:17;19.10;70.40
53978;DHT22;39886;47.984;-1.586;2023-05-13T04:11:42;19.10;70.40
53978;DHT22;39886;47.984;-1.586;2023-05-13T04:14:08;19.10;70.40
53978;DHT22;39886;47.984;-1.586;2023-05-13T04:16:34;19.10;70.40
53978;DHT22;39886;47.984;-1.586;2023-05-13T04:19:00;19.10;70.40
53978;DHT22;39886;47.984;-1.586;2023-05-13T04:21:26;19.10;70.50
53978;DHT22;39886;47.984;-1.586;2023-05-13T04:23:52;19.10;70.50
53978;DHT22;39886;47.984;-1.586;2023-05-13T04:26:17;19.10;70.40
53978;DHT22;39886;47.984;-1.586;2023-05-13T04:28:44;19.10;70.50
53978;DHT22;39886;47.984;-1.586;2023-05-13T04:31:10;19.10;70.40
53978;DHT22;39886;47.984;-1.586;2023-05-13T04:33:36;19.10;70.50
53978;DHT22;39886;47.984;-1.586;2023-05-13T04:36:02;19.10;70.50
53978;DHT22;39886;47.984;-1.586;2023-05-13T04:38:29;19.10;70.50
53978;DHT22;39886;47.984;-1.586;2023-05-13T04:40:55;19.10;70.50
53978;DHT22;39886;47.984;-1.586;2023-05-13T04:43:21;19.10;70.40
53978;DHT22;39886;47.984;-1.586;2023-05-13T04:45:47;19.10;70.40
53978;DHT22;39886;47.984;-1.586;2023-05-13T04:48:13;19.10;70.50
53978;DHT22;39886;47.984;-1.586;2023-05-13T04:50:44;19.10;70.50
53978;DHT22;39886;47.984;-1.586;2023-05-13T04:53:10;19.10;70.50
53978;DHT22;39886;47.984;-1.586;2023-05-13T04:55:36;19.10;70.50
53978;DHT22;39886;47.984;-1.586;2023-05-13T04:58:02;19.10;70.50
53978;DHT22;39886;47.984;-1.586;2023-05-13T05:00:28;19.00;70.40
53978;DHT22;39886;47.984;-1.586;2023-05-13T05:02:53;19.10;70.50
53978;DHT22;39886;47.984;-1.586;2023-05-13T05:05:20;19.00;70.50
53978;DHT22;39886;47.984;-1.586;2023-05-13T05:07:46;19.10;70.50
53978;DHT22;39886;47.984;-1.586;2023-05-13T05:10:11;19.10;70.50
53978;DHT22;39886;47.984;-1.586;2023-05-13T05:12:37;19.10;70.50
53978;DHT22;39886;47.984;-1.586;2023-05-13T05:15:04;19.10;70.50
53978;DHT22;39886;47.984;-1.586;2023-05-13T05:17:30;19.00;70.40
53978;DHT22;39886;47.984;-1.586;2023-05-13T05:19:57;19.00;70.40
53978;DHT22;39886;47.984;-1.586;2023-05-13T05:22:25;19.10;70.50
53978;DHT22;39886;47.984;-1.586;2023-05-13T05:24:50;19.10;70.50
53978;DHT22;39886;47.984;-1.586;2023-05-13T05:27:16;19.10;70.50
53978;DHT22;39886;47.984;-1.586;2023-05-13T05:29:42;19.10;70.50
53978;DHT22;39886;47.984;-1.586;2023-05-13T05:32:08;19.10;70.50
53978;DHT22;39886;47.984;-1.586;2023-05-13T05:34:34;19.10;70.50
53978;DHT22;39886;47.984;-1.586;2023-05-13T05:37:00;19.10;70.50
53978;DHT22;39886;47.984;-1.586;2023-05-13T05:39:26;19.10;70.50
53978;DHT22;39886;47.984;-1.586;2023-05-13T05:41:52;19.00;70.50
53978;DHT22;39886;47.984;-1.586;2023-05-13T05:44:17;19.10;70.50
53978;DHT22;39886;47.984;-1.586;2023-05-13T05:46:43;19.00;70.50
53978;DHT22;39886;47.984;-1.586;2023-05-13T05:49:09;19.10;70.50
53978;DHT22;39886;47.984;-1.586;2023-05-13T05:51:35;19.00;70.50
53978;DHT22;39886;47.984;-1.586;2023-05-13T05:54:19;19.10;70.50
53978;DHT22;39886;47.984;-1.586;2023-05-13T05:56:45;19.10;70.50
53978;DHT22;39886;47.984;-1.586;2023-05-13T05:59:10;19.10;70.50
53978;DHT22;39886;47.984;-1.586;2023-05-13T06:01:36;19.10;70.50
53978;DHT22;39886;47.984;-1.586;2023-05-13T06:04:02;19.00;70.50
53978;DHT22;39886;47.984;-1.586;2023-05-13T06:06:28;19.10;70.50
53978;DHT22;39886;47.984;-1.586;2023-05-13T06:08:54;19.10;70.50
53978;DHT22;39886;47.984;-1.586;2023-05-13T06:11:20;19.10;70.50
53978;DHT22;39886;47.984;-1.586;2023-05-13T06:13:46;19.10;70.50
53978;DHT22;39886;47.984;-1.586;2023-05-13T06:16:11;19.10;70.50
53978;DHT22;39886;47.984;-1.586;2023-05-13T06:18:37;19.10;70.50
53978;DHT22;39886;47.984;-1.586;2023-05-13T06:21:03;19.10;70.50
53978;DHT22;39886;47.984;-1.586;2023-05-13T06:23:29;19.00;70.40
53978;DHT22;39886;47.984;-1.586;2023-05-13T06:25:54;19.10;70.50
53978;DHT22;39886;47.984;-1.586;2023-05-13T06:28:21;19.00;70.40
53978;DHT22;39886;47.984;-1.586;2023-05-13T06:30:47;19.10;70.50
53978;DHT22;39886;47.984;-1.586;2023-05-13T06:33:13;19.10;70.50
53978;DHT22;39886;47.984;-1.586;2023-05-13T06:35:39;19.10;70.50
53978;DHT22;39886;47.984;-1.586;2023-05-13T06:38:04;19.00;70.40
53978;DHT22;39886;47.984;-1.586;2023-05-13T06:40:30;19.10;70.50
53978;DHT22;39886;47.984;-1.586;2023-05-13T06:42:56;19.10;70.50
53978;DHT22;39886;47.984;-1.586;2023-05-13T06:45:22;19.10;70.50
53978;DHT22;39886;47.984;-1.586;2023-05-13T06:47:50;19.00;70.40
53978;DHT22;39886;47.984;-1.586;2023-05-13T06:50:16;19.10;70.50
53978;DHT22;39886;47.984;-1.586;2023-05-13T06:52:42;19.00;70.40
53978;DHT22;39886;47.984;-1.586;2023-05-13T06:55:08;19.10;71.20
53978;DHT22;39886;47.984;-1.586;2023-05-13T06:57:35;19.00;70.40
53978;DHT22;39886;47.984;-1.586;2023-05-13T07:00:00;19.10;70.50
53978;DHT22;39886;47.984;-1.586;2023-05-13T07:02:26;19.00;70.40
53978;DHT22;39886;47.984;-1.586;2023-05-13T07:04:52;19.10;70.50
53978;DHT22;39886;47.984;-1.586;2023-05-13T07:07:18;19.00;70.40
53978;DHT22;39886;47.984;-1.586;2023-05-13T07:09:43;19.10;70.40
53978;DHT22;39886;47.984;-1.586;2023-05-13T07:12:09;19.00;70.40
53978;DHT22;39886;47.984;-1.586;2023-05-13T07:14:36;19.10;70.40
53978;DHT22;39886;47.984;-1.586;2023-05-13T07:17:02;19.00;70.40
53978;DHT22;39886;47.984;-1.586;2023-05-13T07:19:28;19.10;70.40
53978;DHT22;39886;47.984;-1.586;2023-05-13T07:21:54;19.00;70.40
53978;DHT22;39886;47.984;-1.586;2023-05-13T07:24:20;19.10;70.40
53978;DHT22;39886;47.984;-1.586;2023-05-13T07:26:46;19.00;70.30
53978;DHT22;39886;47.984;-1.586;2023-05-13T07:29:11;19.10;70.40
53978;DHT22;39886;47.984;-1.586;2023-05-13T07:31:37;19.10;70.40
53978;DHT22;39886;47.984;-1.586;2023-05-13T07:34:03;19.10;70.40
53978;DHT22;39886;47.984;-1.586;2023-05-13T07:36:29;19.10;70.40
53978;DHT22;39886;47.984;-1.586;2023-05-13T07:38:55;19.00;70.30
53978;DHT22;39886;47.984;-1.586;2023-05-13T07:41:20;19.10;70.40
53978;DHT22;39886;47.984;-1.586;2023-05-13T07:43:46;19.10;70.40
53978;DHT22;39886;47.984;-1.586;2023-05-13T07:46:12;19.10;70.40
53978;DHT22;39886;47.984;-1.586;2023-05-13T07:48:38;19.10;70.40
53978;DHT22;39886;47.984;-1.586;2023-05-13T07:51:04;19.10;70.40
53978;DHT22;39886;47.984;-1.586;2023-05-13T07:53:30;19.10;71.00
53978;DHT22;39886;47.984;-1.586;2023-05-13T07:55:56;19.10;70.40
53978;DHT22;39886;47.984;-1.586;2023-05-13T07:58:22;19.10;70.30
53978;DHT22;39886;47.984;-1.586;2023-05-13T08:00:47;19.10;70.30
53978;DHT22;39886;47.984;-1.586;2023-05-13T08:03:16;19.10;70.20
53978;DHT22;39886;47.984;-1.586;2023-05-13T08:05:42;19.10;70.20
53978;DHT22;39886;47.984;-1.586;2023-05-13T08:08:08;19.20;70.30
53978;DHT22;39886;47.984;-1.586;2023-05-13T08:10:33;19.10;70.20
53978;DHT22;39886;47.984;-1.586;2023-05-13T08:12:59;19.20;70.20
53978;DHT22;39886;47.984;-1.586;2023-05-13T08:15:26;19.20;70.20
53978;DHT22;39886;47.984;-1.586;2023-05-13T08:17:52;19.20;70.20
53978;DHT22;39886;47.984;-1.586;2023-05-13T08:20:19;19.20;70.10
53978;DHT22;39886;47.984;-1.586;2023-05-13T08:22:45;19.20;70.00
53978;DHT22;39886;47.984;-1.586;2023-05-13T08:25:11;19.20;70.00
53978;DHT22;39886;47.984;-1.586;2023-05-13T08:27:36;19.20;70.10
53978;DHT22;39886;47.984;-1.586;2023-05-13T08:30:03;19.20;70.10
53978;DHT22;39886;47.984;-1.586;2023-05-13T08:32:29;19.20;70.00
53978;DHT22;39886;47.984;-1.586;2023-05-13T08:34:55;19.20;70.00
53978;DHT22;39886;47.984;-1.586;2023-05-13T08:37:21;19.20;70.00
53978;DHT22;39886;47.984;-1.586;2023-05-13T08:39:46;19.20;70.00
53978;DHT22;39886;47.984;-1.586;2023-05-13T08:42:15;19.30;70.00
53978;DHT22;39886;47.984;-1.586;2023-05-13T08:44:43;19.30;70.00
53978;DHT22;39886;47.984;-1.586;2023-05-13T08:47:37;19.30;69.90
53978;DHT22;39886;47.984;-1.586;2023-05-13T08:50:05;19.30;69.90
53978;DHT22;39886;47.984;-1.586;2023-05-13T08:52:31;19.30;69.90
53978;DHT22;39886;47.984;-1.586;2023-05-13T08:54:58;19.30;69.90
53978;DHT22;39886;47.984;-1.586;2023-05-13T08:57:26;19.30;69.90
53978;DHT22;39886;47.984;-1.586;2023-05-13T08:59:52;19.40;69.90
53978;DHT22;39886;47.984;-1.586;2023-05-13T09:02:18;19.40;69.80
53978;DHT22;39886;47.984;-1.586;2023-05-13T09:04:45;19.40;69.80
53978;DHT22;39886;47.984;-1.586;2023-05-13T09:07:14;19.40;69.70
53978;DHT22;39886;47.984;-1.586;2023-05-13T09:09:40;19.40;69.70
53978;DHT22;39886;47.984;-1.586;2023-05-13T09:12:06;19.40;69.70
53978;DHT22;39886;47.984;-1.586;2023-05-13T09:14:33;19.40;69.60
53978;DHT22;39886;47.984;-1.586;2023-05-13T09:17:02;19.40;69.60
53978;DHT22;39886;47.984;-1.586;2023-05-13T09:19:28;19.50;69.60
53978;DHT22;39886;47.984;-1.586;2023-05-13T09:21:54;19.50;69.50
53978;DHT22;39886;47.984;-1.586;2023-05-13T09:24:22;19.50;69.50
53978;DHT22;39886;47.984;-1.586;2023-05-13T09:26:49;19.50;69.50
53978;DHT22;39886;47.984;-1.586;2023-05-13T09:31:46;19.60;69.40
53978;DHT22;39886;47.984;-1.586;2023-05-13T09:34:14;19.60;69.40
53978;DHT22;39886;47.984;-1.586;2023-05-13T09:36:40;19.60;69.40
53978;DHT22;39886;47.984;-1.586;2023-05-13T09:39:06;19.60;69.40
53978;DHT22;39886;47.984;-1.586;2023-05-13T09:41:33;19.60;69.30
53978;DHT22;39886;47.984;-1.586;2023-05-13T09:44:01;19.70;69.30
53978;DHT22;39886;47.984;-1.586;2023-05-13T09:46:27;19.70;69.20
53978;DHT22;39886;47.984;-1.586;2023-05-13T09:48:56;19.70;69.20
53978;DHT22;39886;47.984;-1.586;2023-05-13T09:51:26;19.70;69.20
53978;DHT22;39886;47.984;-1.586;2023-05-13T09:53:53;19.70;69.10
53978;DHT22;39886;47.984;-1.586;2023-05-13T09:56:21;19.70;69.10
53978;DHT22;39886;47.984;-1.586;2023-05-13T09:58:51;19.80;69.00
53978;DHT22;39886;47.984;-1.586;2023-05-13T10:01:19;19.80;69.10
53978;DHT22;39886;47.984;-1.586;2023-05-13T10:03:45;19.80;68.90
53978;DHT22;39886;47.984;-1.586;2023-05-13T10:06:16;19.80;68.90
53978;DHT22;39886;47.984;-1.586;2023-05-13T10:08:46;19.80;68.80
53978;DHT22;39886;47.984;-1.586;2023-05-13T10:11:14;19.80;68.70
53978;DHT22;39886;47.984;-1.586;2023-05-13T10:13:42;19.90;68.90
53978;DHT22;39886;47.984;-1.586;2023-05-13T10:16:10;19.90;68.70
53978;DHT22;39886;47.984;-1.586;2023-05-13T10:18:36;19.90;68.70
53978;DHT22;39886;47.984;-1.586;2023-05-13T10:21:02;19.90;68.80
53978;DHT22;39886;47.984;-1.586;2023-05-13T10:23:28;20.00;68.80
53978;DHT22;39886;47.984;-1.586;2023-05-13T10:25:54;20.00;68.60
53978;DHT22;39886;47.984;-1.586;2023-05-13T10:28:21;20.00;68.70
53978;DHT22;39886;47.984;-1.586;2023-05-13T10:30:49;20.00;68.60
53978;DHT22;39886;47.984;-1.586;2023-05-13T10:33:16;20.00;68.60
53978;DHT22;39886;47.984;-1.586;2023-05-13T10:36:05;20.00;68.60
53978;DHT22;39886;47.984;-1.586;2023-05-13T10:44:25;20.10;68.70
53978;DHT22;39886;47.984;-1.586;2023-05-13T10:46:51;20.20;68.70
53978;DHT22;39886;47.984;-1.586;2023-05-13T10:49:21;20.20;68.60
53978;DHT22;39886;47.984;-1.586;2023-05-13T10:51:49;20.20;68.50
53978;DHT22;39886;47.984;-1.586;2023-05-13T10:54:20;20.20;68.50
53978;DHT22;39886;47.984;-1.586;2023-05-13T10:56:55;20.20;68.40
53978;DHT22;39886;47.984;-1.586;2023-05-13T10:59:22;20.20;68.30
53978;DHT22;39886;47.984;-1.586;2023-05-13T11:01:48;20.30;68.30
53978;DHT22;39886;47.984;-1.586;2023-05-13T11:04:15;20.30;68.40
53978;DHT22;39886;47.984;-1.586;2023-05-13T11:06:42;20.30;68.40
53978;DHT22;39886;47.984;-1.586;2023-05-13T11:11:39;20.30;68.10
53978;DHT22;39886;47.984;-1.586;2023-05-13T11:14:14;20.30;68.00
53978;DHT22;39886;47.984;-1.586;2023-05-13T11:16:51;20.30;68.10
53978;DHT22;39886;47.984;-1.586;2023-05-13T11:19:24;20.40;68.00
53978;DHT22;39886;47.984;-1.586;2023-05-13T11:21:52;20.40;68.00
53978;DHT22;39886;47.984;-1.586;2023-05-13T11:24:19;20.40;68.00
53978;DHT22;39886;47.984;-1.586;2023-05-13T11:26:51;20.40;67.90
53978;DHT22;39886;47.984;-1.586;2023-05-13T11:29:31;20.40;67.90
53978;DHT22;39886;47.984;-1.586;2023-05-13T11:31:58;20.40;67.80
53978;DHT22;39886;47.984;-1.586;2023-05-13T11:34:24;20.40;67.80
53978;DHT22;39886;47.984;-1.586;2023-05-13T11:36:56;20.40;67.70
53978;DHT22;39886;47.984;-1.586;2023-05-13T11:39:23;20.40;67.60
53978;DHT22;39886;47.984;-1.586;2023-05-13T11:41:52;20.50;67.60
53978;DHT22;39886;47.984;-1.586;2023-05-13T11:44:20;20.50;67.60
53978;DHT22;39886;47.984;-1.586;2023-05-13T11:46:49;20.50;67.50
53978;DHT22;39886;47.984;-1.586;2023-05-13T11:49:48;20.50;67.50
53978;DHT22;39886;47.984;-1.586;2023-05-13T11:52:16;20.50;67.50
53978;DHT22;39886;47.984;-1.586;2023-05-13T11:54:44;20.50;67.40
53978;DHT22;39886;47.984;-1.586;2023-05-13T11:57:26;20.60;67.40
53978;DHT22;39886;47.984;-1.586;2023-05-13T12:02:24;20.60;67.40
53978;DHT22;39886;47.984;-1.586;2023-05-13T12:04:51;20.60;67.40
53978;DHT22;39886;47.984;-1.586;2023-05-13T12:07:26;20.60;67.40
53978;DHT22;39886;47.984;-1.586;2023-05-13T12:09:55;20.60;67.30
53978;DHT22;39886;47.984;-1.586;2023-05-13T12:12:22;20.70;67.30
53978;DHT22;39886;47.984;-1.586;2023-05-13T12:14:48;20.60;67.30
53978;DHT22;39886;47.984;-1.586;2023-05-13T12:17:15;20.60;67.20
53978;DHT22;39886;47.984;-1.586;2023-05-13T12:20:13;20.70;67.20
53978;DHT22;39886;47.984;-1.586;2023-05-13T12:27:58;20.70;67.10
53978;DHT22;39886;47.984;-1.586;2023-05-13T12:30:24;20.70;67.00
53978;DHT22;39886;47.984;-1.586;2023-05-13T12:32:50;20.70;67.00
53978;DHT22;39886;47.984;-1.586;2023-05-13T12:35:16;20.70;67.00
53978;DHT22;39886;47.984;-1.586;2023-05-13T12:37:42;20.70;67.00
53978;DHT22;39886;47.984;-1.586;2023-05-13T12:40:11;20.70;67.00
53978;DHT22;39886;47.984;-1.586;2023-05-13T12:42:37;20.70;67.00
53978;DHT22;39886;47.984;-1.586;2023-05-13T12:45:04;20.70;67.00
53978;DHT22;39886;47.984;-1.586;2023-05-13T12:47:45;20.70;67.70
53978;DHT22;39886;47.984;-1.586;2023-05-13T12:50:11;20.70;67.00
53978;DHT22;39886;47.984;-1.586;2023-05-13T12:52:38;20.80;67.00
53978;DHT22;39886;47.984;-1.586;2023-05-13T12:55:04;20.80;67.00
53978;DHT22;39886;47.984;-1.586;2023-05-13T12:57:30;20.80;67.00
53978;DHT22;39886;47.984;-1.586;2023-05-13T12:59:56;20.80;67.00
53978;DHT22;39886;47.984;-1.586;2023-05-13T13:02:22;20.80;66.90
53978;DHT22;39886;47.984;-1.586;2023-05-13T13:04:47;20.80;66.90
53978;DHT22;39886;47.984;-1.586;2023-05-13T13:07:13;20.80;66.90
53978;DHT22;39886;47.984;-1.586;2023-05-13T13:09:39;20.80;66.90
53978;DHT22;39886;47.984;-1.586;2023-05-13T13:12:05;20.80;66.90
53978;DHT22;39886;47.984;-1.586;2023-05-13T13:14:31;20.90;66.90
53978;DHT22;39886;47.984;-1.586;2023-05-13T13:16:56;20.90;66.90
53978;DHT22;39886;47.984;-1.586;2023-05-13T13:19:22;20.90;66.80
53978;DHT22;39886;47.984;-1.586;2023-05-13T13:21:48;20.90;66.70
53978;DHT22;39886;47.984;-1.586;2023-05-13T13:24:13;20.90;66.80
53978;DHT22;39886;47.984;-1.586;2023-05-13T13:26:39;20.90;66.80
53978;DHT22;39886;47.984;-1.586;2023-05-13T13:29:05;20.90;66.90
53978;DHT22;39886;47.984;-1.586;2023-05-13T13:31:31;20.90;66.90
53978;DHT22;39886;47.984;-1.586;2023-05-13T13:33:56;20.90;66.80
53978;DHT22;39886;47.984;-1.586;2023-05-13T13:36:28;20.90;66.70
53978;DHT22;39886;47.984;-1.586;2023-05-13T13:38:54;21.00;66.70
53978;DHT22;39886;47.984;-1.586;2023-05-13T13:41:20;21.00;66.70
53978;DHT22;39886;47.984;-1.586;2023-05-13T13:43:50;21.00;66.70
53978;DHT22;39886;47.984;-1.586;2023-05-13T13:46:16;21.00;66.70
53978;DHT22;39886;47.984;-1.586;2023-05-13T13:48:41;21.00;66.70
53978;DHT22;39886;47.984;-1.586;2023-05-13T13:51:07;21.00;66.80
53978;DHT22;39886;47.984;-1.586;2023-05-13T13:53:33;21.00;66.70
53978;DHT22;39886;47.984;-1.586;2023-05-13T13:55:58;21.00;66.70
53978;DHT22;39886;47.984;-1.586;2023-05-13T13:58:24;21.00;66.70
53978;DHT22;39886;47.984;-1.586;2023-05-13T14:00:51;21.00;66.70
53978;DHT22;39886;47.984;-1.586;2023-05-13T14:03:17;21.00;66.70
53978;DHT22;39886;47.984;-1.586;2023-05-13T14:05:43;21.10;66.70
53978;DHT22;39886;47.984;-1.586;2023-05-13T14:08:08;21.10;66.60
53978;DHT22;39886;47.984;-1.586;2023-05-13T14:10:34;21.10;66.50
53978;DHT22;39886;47.984;-1.586;2023-05-13T14:13:00;21.10;66.50
53978;DHT22;39886;47.984;-1.586;2023-05-13T14:15:26;21.10;66.50
53978;DHT22;39886;47.984;-1.586;2023-05-13T14:17:54;21.10;66.50
53978;DHT22;39886;47.984;-1.586;2023-05-13T14:20:20;21.10;67.10
53978;DHT22;39886;47.984;-1.586;2023-05-13T14:22:46;21.10;66.40
53978;DHT22;39886;47.984;-1.586;2023-05-13T14:25:12;21.10;66.50
53978;DHT22;39886;47.984;-1.586;2023-05-13T14:27:38;21.10;66.40
53978;DHT22;39886;47.984;-1.586;2023-05-13T14:30:05;21.20;66.40
53978;DHT22;39886;47.984;-1.586;2023-05-13T14:32:32;21.20;66.40
53978;DHT22;39886;47.984;-1.586;2023-05-13T14:34:58;21.20;66.40
53978;DHT22;39886;47.984;-1.586;2023-05-13T14:37:23;21.20;66.30
53978;DHT22;39886;47.984;-1.586;2023-05-13T14:39:49;21.20;66.40
53978;DHT22;39886;47.984;-1.586;2023-05-13T14:42:16;21.20;66.40
53978;DHT22;39886;47.984;-1.586;2023-05-13T14:44:42;21.20;66.30
53978;DHT22;39886;47.984;-1.586;2023-05-13T14:47:07;21.20;66.30
53978;DHT22;39886;47.984;-1.586;2023-05-13T14:49:33;21.20;66.30
53978;DHT22;39886;47.984;-1.586;2023-05-13T14:51:59;21.20;66.30
53978;DHT22;39886;47.984;-1.586;2023-05-13T14:54:25;21.20;66.20
53978;DHT22;39886;47.984;-1.586;2023-05-13T14:56:51;21.20;66.20
53978;DHT22;39886;47.984;-1.586;2023-05-13T14:59:17;21.20;66.20
53978;DHT22;39886;47.984;-1.586;2023-05-13T15:01:43;21.20;66.20
53978;DHT22;39886;47.984;-1.586;2023-05-13T15:04:09;21.20;66.20
53978;DHT22;39886;47.984;-1.586;2023-05-13T15:06:35;21.20;66.20
53978;DHT22;39886;47.984;-1.586;2023-05-13T15:09:01;21.20;66.20
53978;DHT22;39886;47.984;-1.586;2023-05-13T15:11:28;21.20;66.20
53978;DHT22;39886;47.984;-1.586;2023-05-13T15:13:54;21.20;66.10
53978;DHT22;39886;47.984;-1.586;2023-05-13T15:16:20;21.20;66.10
53978;DHT22;39886;47.984;-1.586;2023-05-13T15:18:46;21.30;66.20
53978;DHT22;39886;47.984;-1.586;2023-05-13T15:21:11;21.20;66.00
53978;DHT22;39886;47.984;-1.586;2023-05-13T15:23:37;21.30;66.10
53978;DHT22;39886;47.984;-1.586;2023-05-13T15:26:03;21.20;66.10
53978;DHT22;39886;47.984;-1.586;2023-05-13T15:28:28;21.20;66.10
53978;DHT22;39886;47.984;-1.586;2023-05-13T15:30:54;21.30;66.20
53978;DHT22;39886;47.984;-1.586;2023-05-13T15:33:20;21.20;66.20
53978;DHT22;39886;47.984;-1.586;2023-05-13T15:35:46;21.20;66.10